Airfield :
LOGIN :

Register | Disclaimer

   EN    FR    IT 

 










Legend :    VFR   Marginal VFR   IFR   Intensive IFR   Very Intensive IFR
Visi :
Ceiling :
>= 8 km
>= 3000ft
5 to 8 km
1000 to 3000 ft
1500m to 5 km
500 to 1000 ft
800 to 1500m
200 to 500 ft
< 800m
< 200 ft
Symbols :   Thunderstorms  Fog  Heavy snow  Heavy precipitations  Wind > 20 kt
SIGMETs :     Misc.  Thunderstorms  Icing  Turbulence  Mountain Waves  Volcanic Ashes






- Airport Elevation : 1234 ft
- IATA code : LUX


ELLX - Luxembourg Findel

CURRENT METAR :
  • 262150Z 17006KT 1200 R24/1500VP2000U BR FEW002 BKN027 04/04 Q1015 TEMPO 0700 FG BKN001

EXPIRED METARs :
  • 262120Z 17006KT 1200 R24/1400VP2000U BR SCT001 BKN028 04/04 Q1016 TEMPO 0700 FG BKN001
  • 262050Z 17005KT 1200 R24/1100VP2000D BR SCT001 BKN034 04/04 Q1016 TEMPO 0700 FG BKN001
  • 262020Z 17007KT 150V210 1800 BR FEW002 BKN038 04/04 Q1016 TEMPO 1000
  • 261950Z 18008KT 2000 BR FEW003 BKN033 05/05 Q1016 TEMPO 1000
  • 261920Z 18008KT 2000 BR FEW034 BKN085 05/04 Q1016 TEMPO 1000

TAF AMD TAF ELLX
Valid from the 26 at 18:00 until the 28 at 00:00 UTC


261800Z 2618/2724 19005KT 2000 BR NSC
PROB30
TEMPO 2618/2624 0500 FG BKN001
BECMG 2700/2703 3000 BR BKN005
TEMPO 2703/2708 5000 RA
TEMPO 2712/2724 20012G20KT 5000 RA
ATIS : +352 4798 27300
Met : +352 4798 27010 / 27050



MET'MAP, your aeronautical weather chart ! - Copyright ORBIFLY December 2007 - Disclaimer

ORBIFLY MET'MAP TEAM :

Programming & Development : Alexandra Zaïnal
Concept & original design : Baudouin d'Aumeries
Assistance for programming : Marc-Olivier Méhu
Technical & hardware support : Manuel Goepfert

Contact : metmap@orbifly.com




SOURCES & CREDITS :

   NOAA